Aviation Digital Data Service (ADDS)

Output produced by METARs form (1520 UTC 23 January 2019)
found at http://www.aviationweather.gov/metar/data/
 
Forecast for: VEAT (AGARTALA , IN)
Text: TAF VEAT 231400Z 2315/2324 00000KT 3500 BR NSC
Forecast period: 1500 to 1800 UTC 23 January 2019
Forecast type: FROM: standard forecast or significant change
Winds: calm
Visibility: 2.17 miles (3.49 km)
Ceiling: unknown
Clouds: missing
Weather: BR  (mist)
Text: BECMG 2318/2320 2000 BR
Forecast period: 1800 to 2200 UTC 23 January 2019
Forecast type: BECOMING: Conditions expected to become as follows by 2000 UTC 23 January 2019
Winds: calm
Visibility: 1.24 miles (2.00 km)
Ceiling: unknown
Clouds: missing
Weather: BR  (mist)
Text: BECMG 2322/2324 1000 MIFG
Forecast period: 2200 UTC 23 January 2019 to 0000 UTC 24 January 2019
Forecast type: BECOMING: Conditions expected to become as follows by 0000 UTC 24 January 2019
Winds: calm
Visibility: 0.62 miles (1.00 km)
Ceiling: unknown
Clouds: missing
Weather: MIFG  (shallow fog)